OIIE METAR and TAF | Updated Today

OIIE METAR

Imam Khomeini International Airport

Observation time: 24 min. ago

OIIE 080600Z 28006KT 5000 BR NSC 06/03 Q1027

Need help? Read our tutorial on how to read METARs or read the parsed version below.

Imam Khomeini International Airport (OIIE) METAR

  • Weather conditions on Wed, 08 Dec 2021 06:00:00 +0000 (24 min. ago):
  • Present conditions: Mist
  • Clouds: No significant clouds are observed
  • Visibility: 5000 meters
  • Wind: 280 degrees at 6 knots
  • Temperature: 6 celsius
  • Dew point: 3 celsius
  • Pressure: 1027 millibars
  • Remarks: None


Useful to know...

OIIE TAF

Imam Khomeini International Airport

TAF OIIE 072300Z 0800/0906 30006KT 8000 NSC TEMPO 0802/0805 5000 HZ/BR
Observation time: 7:24 hr. ago
Need help? Read our tutorial on how to read TAFs or read the parsed version below.

Parsed version of TAF for Imam Khomeini International Airport (OIIE)

  • From 08 December at 00:00 UTC, to day 09 of the month at 06:00 UTC
  • Clouds: No significant clouds are observed
  • Visibility: 8000 meters
  • Wind: 300 degrees at 6
  • Expected to arise temporarily, from 08 December at 02:00 UTC, to day 08 of the month at 05:00 UTC
  • Visibility: 5000 meters
  • Other: Haze